sensor_id;sensor_type;location;lat;lon;timestamp;temperature;humidity
75010;DHT22;63564;46.840;18.336;2023-12-20T00:00:26;-1.16;99.99
75010;DHT22;63564;46.840;18.336;2023-12-20T00:03:27;-1.25;99.99
75010;DHT22;63564;46.840;18.336;2023-12-20T00:06:27;-1.15;99.99
75010;DHT22;63564;46.840;18.336;2023-12-20T00:09:27;-1.15;99.99
75010;DHT22;63564;46.840;18.336;2023-12-20T00:12:28;-1.06;99.99
75010;DHT22;63564;46.840;18.336;2023-12-20T00:15:28;-1.09;99.99
75010;DHT22;63564;46.840;18.336;2023-12-20T00:18:28;-1.11;99.99
75010;DHT22;63564;46.840;18.336;2023-12-20T00:21:29;-1.18;99.99
75010;DHT22;63564;46.840;18.336;2023-12-20T00:24:29;-1.11;99.99
75010;DHT22;63564;46.840;18.336;2023-12-20T00:27:29;-1.16;99.99
75010;DHT22;63564;46.840;18.336;2023-12-20T00:30:30;-1.02;99.99
75010;DHT22;63564;46.840;18.336;2023-12-20T00:33:30;-0.84;99.99
75010;DHT22;63564;46.840;18.336;2023-12-20T00:36:31;-0.64;99.99
75010;DHT22;63564;46.840;18.336;2023-12-20T00:39:31;-0.94;99.99
75010;DHT22;63564;46.840;18.336;2023-12-20T00:42:33;-1.04;99.99
75010;DHT22;63564;46.840;18.336;2023-12-20T00:45:33;-1.05;99.99
75010;DHT22;63564;46.840;18.336;2023-12-20T00:48:34;-1.12;99.99
75010;DHT22;63564;46.840;18.336;2023-12-20T00:51:34;-1.09;99.99
75010;DHT22;63564;46.840;18.336;2023-12-20T00:54:34;-1.05;99.99
75010;DHT22;63564;46.840;18.336;2023-12-20T00:57:35;-0.87;99.99
75010;DHT22;63564;46.840;18.336;2023-12-20T01:00:35;-0.70;99.99
75010;DHT22;63564;46.840;18.336;2023-12-20T01:03:36;-0.61;99.99
75010;DHT22;63564;46.840;18.336;2023-12-20T01:06:36;-0.56;99.99
75010;DHT22;63564;46.840;18.336;2023-12-20T01:09:36;-0.52;99.99
75010;DHT22;63564;46.840;18.336;2023-12-20T01:12:37;-0.94;99.99
75010;DHT22;63564;46.840;18.336;2023-12-20T01:15:37;-1.09;99.99
75010;DHT22;63564;46.840;18.336;2023-12-20T01:18:39;-1.09;99.99
75010;DHT22;63564;46.840;18.336;2023-12-20T01:21:39;-1.09;99.99
75010;DHT22;63564;46.840;18.336;2023-12-20T01:24:40;-0.84;99.99
75010;DHT22;63564;46.840;18.336;2023-12-20T01:27:40;-0.71;99.99
75010;DHT22;63564;46.840;18.336;2023-12-20T01:30:40;-1.01;99.99
75010;DHT22;63564;46.840;18.336;2023-12-20T01:33:41;-1.11;99.99
75010;DHT22;63564;46.840;18.336;2023-12-20T01:36:42;-0.95;99.99
75010;DHT22;63564;46.840;18.336;2023-12-20T01:39:42;-0.97;99.99
75010;DHT22;63564;46.840;18.336;2023-12-20T01:42:43;-0.85;99.99
75010;DHT22;63564;46.840;18.336;2023-12-20T01:45:43;-0.99;99.99
75010;DHT22;63564;46.840;18.336;2023-12-20T01:48:43;-0.91;99.99
75010;DHT22;63564;46.840;18.336;2023-12-20T01:51:44;-1.04;99.99
75010;DHT22;63564;46.840;18.336;2023-12-20T01:54:45;-1.22;99.99
75010;DHT22;63564;46.840;18.336;2023-12-20T01:57:46;-1.25;99.99
75010;DHT22;63564;46.840;18.336;2023-12-20T02:00:47;-1.13;99.99
75010;DHT22;63564;46.840;18.336;2023-12-20T02:03:48;-1.16;99.99
75010;DHT22;63564;46.840;18.336;2023-12-20T02:06:52;-1.06;99.99
75010;DHT22;63564;46.840;18.336;2023-12-20T02:09:52;-0.91;99.99
75010;DHT22;63564;46.840;18.336;2023-12-20T02:12:53;-0.81;99.99
75010;DHT22;63564;46.840;18.336;2023-12-20T02:15:54;-0.97;99.99
75010;DHT22;63564;46.840;18.336;2023-12-20T02:18:55;-1.01;99.99
75010;DHT22;63564;46.840;18.336;2023-12-20T02:22:11;-1.12;99.99
75010;DHT22;63564;46.840;18.336;2023-12-20T02:25:11;-1.09;99.99
75010;DHT22;63564;46.840;18.336;2023-12-20T02:28:12;-1.13;99.99
75010;DHT22;63564;46.840;18.336;2023-12-20T02:31:12;-1.11;99.99
75010;DHT22;63564;46.840;18.336;2023-12-20T02:34:12;-1.12;99.99
75010;DHT22;63564;46.840;18.336;2023-12-20T02:37:13;-1.01;99.99
75010;DHT22;63564;46.840;18.336;2023-12-20T02:40:13;-0.83;99.99
75010;DHT22;63564;46.840;18.336;2023-12-20T02:43:14;-1.05;99.99
75010;DHT22;63564;46.840;18.336;2023-12-20T02:46:15;-1.15;99.99
75010;DHT22;63564;46.840;18.336;2023-12-20T02:49:16;-1.08;99.99
75010;DHT22;63564;46.840;18.336;2023-12-20T02:52:17;-0.92;99.99
75010;DHT22;63564;46.840;18.336;2023-12-20T02:55:17;-0.71;99.99
75010;DHT22;63564;46.840;18.336;2023-12-20T02:58:18;-0.78;99.99
75010;DHT22;63564;46.840;18.336;2023-12-20T03:01:18;-1.18;99.99
75010;DHT22;63564;46.840;18.336;2023-12-20T03:04:18;-1.28;99.99
75010;DHT22;63564;46.840;18.336;2023-12-20T03:07:19;-1.09;99.99
75010;DHT22;63564;46.840;18.336;2023-12-20T03:10:19;-1.06;99.99
75010;DHT22;63564;46.840;18.336;2023-12-20T03:13:19;-1.15;99.99
75010;DHT22;63564;46.840;18.336;2023-12-20T03:16:20;-1.04;99.99
75010;DHT22;63564;46.840;18.336;2023-12-20T03:19:20;-1.16;99.99
75010;DHT22;63564;46.840;18.336;2023-12-20T03:22:21;-1.39;99.99
75010;DHT22;63564;46.840;18.336;2023-12-20T03:25:21;-1.52;99.99
75010;DHT22;63564;46.840;18.336;2023-12-20T03:28:21;-1.40;99.99
75010;DHT22;63564;46.840;18.336;2023-12-20T03:31:23;-1.33;99.99
75010;DHT22;63564;46.840;18.336;2023-12-20T03:34:23;-1.36;99.99
75010;DHT22;63564;46.840;18.336;2023-12-20T03:37:23;-1.04;99.99
75010;DHT22;63564;46.840;18.336;2023-12-20T03:40:24;-1.06;99.99
75010;DHT22;63564;46.840;18.336;2023-12-20T03:43:24;-0.94;99.99
75010;DHT22;63564;46.840;18.336;2023-12-20T03:46:24;-0.80;99.99
75010;DHT22;63564;46.840;18.336;2023-12-20T03:49:25;-0.84;99.99
75010;DHT22;63564;46.840;18.336;2023-12-20T03:52:26;-1.04;99.99
75010;DHT22;63564;46.840;18.336;2023-12-20T03:55:26;-1.26;99.99
75010;DHT22;63564;46.840;18.336;2023-12-20T03:58:26;-1.29;99.99
75010;DHT22;63564;46.840;18.336;2023-12-20T04:01:27;-1.39;99.99
75010;DHT22;63564;46.840;18.336;2023-12-20T04:04:27;-1.40;99.99
75010;DHT22;63564;46.840;18.336;2023-12-20T04:07:27;-1.33;99.99
75010;DHT22;63564;46.840;18.336;2023-12-20T04:10:28;-1.47;99.99
75010;DHT22;63564;46.840;18.336;2023-12-20T04:13:28;-1.53;99.99
75010;DHT22;63564;46.840;18.336;2023-12-20T04:16:28;-1.32;99.99
75010;DHT22;63564;46.840;18.336;2023-12-20T04:19:29;-1.35;99.99
75010;DHT22;63564;46.840;18.336;2023-12-20T04:22:29;-1.42;99.99
75010;DHT22;63564;46.840;18.336;2023-12-20T04:25:29;-1.29;99.99
75010;DHT22;63564;46.840;18.336;2023-12-20T04:28:30;-1.38;99.99
75010;DHT22;63564;46.840;18.336;2023-12-20T04:31:30;-1.18;99.99
75010;DHT22;63564;46.840;18.336;2023-12-20T04:34:30;-1.16;99.99
75010;DHT22;63564;46.840;18.336;2023-12-20T04:37:31;-1.33;99.99
75010;DHT22;63564;46.840;18.336;2023-12-20T04:40:31;-1.28;99.99
75010;DHT22;63564;46.840;18.336;2023-12-20T04:43:32;-1.22;99.99
75010;DHT22;63564;46.840;18.336;2023-12-20T04:46:32;-1.33;99.99
75010;DHT22;63564;46.840;18.336;2023-12-20T04:49:33;-1.38;99.99
75010;DHT22;63564;46.840;18.336;2023-12-20T04:52:33;-1.35;99.99
75010;DHT22;63564;46.840;18.336;2023-12-20T04:55:34;-1.26;99.99
75010;DHT22;63564;46.840;18.336;2023-12-20T04:58:34;-1.16;99.99
75010;DHT22;63564;46.840;18.336;2023-12-20T05:01:34;-1.16;99.99
75010;DHT22;63564;46.840;18.336;2023-12-20T05:04:35;-1.33;99.99
75010;DHT22;63564;46.840;18.336;2023-12-20T05:07:35;-1.13;99.99
75010;DHT22;63564;46.840;18.336;2023-12-20T05:10:35;-1.28;99.99
75010;DHT22;63564;46.840;18.336;2023-12-20T05:13:36;-0.97;99.99
75010;DHT22;63564;46.840;18.336;2023-12-20T05:16:37;-1.05;99.99
75010;DHT22;63564;46.840;18.336;2023-12-20T05:19:37;-1.19;99.99
75010;DHT22;63564;46.840;18.336;2023-12-20T05:22:37;-1.06;99.99
75010;DHT22;63564;46.840;18.336;2023-12-20T05:25:38;-1.26;99.99
75010;DHT22;63564;46.840;18.336;2023-12-20T05:28:39;-1.25;99.99
75010;DHT22;63564;46.840;18.336;2023-12-20T05:31:39;-1.26;99.99
75010;DHT22;63564;46.840;18.336;2023-12-20T05:34:40;-1.53;99.99
75010;DHT22;63564;46.840;18.336;2023-12-20T05:37:41;-1.46;99.99
75010;DHT22;63564;46.840;18.336;2023-12-20T05:40:41;-1.29;99.99
75010;DHT22;63564;46.840;18.336;2023-12-20T05:43:41;-1.36;99.99
75010;DHT22;63564;46.840;18.336;2023-12-20T05:46:42;-1.28;99.99
75010;DHT22;63564;46.840;18.336;2023-12-20T05:49:43;-1.36;99.99
75010;DHT22;63564;46.840;18.336;2023-12-20T05:52:44;-1.62;99.99
75010;DHT22;63564;46.840;18.336;2023-12-20T05:55:44;-1.46;99.99
75010;DHT22;63564;46.840;18.336;2023-12-20T05:58:45;-1.38;99.99
75010;DHT22;63564;46.840;18.336;2023-12-20T06:01:45;-1.42;99.99
75010;DHT22;63564;46.840;18.336;2023-12-20T06:04:45;-1.54;99.99
75010;DHT22;63564;46.840;18.336;2023-12-20T06:07:46;-1.42;99.99
75010;DHT22;63564;46.840;18.336;2023-12-20T06:10:48;-1.31;99.99
75010;DHT22;63564;46.840;18.336;2023-12-20T06:13:49;-1.25;99.99
75010;DHT22;63564;46.840;18.336;2023-12-20T06:16:52;-1.31;99.99
75010;DHT22;63564;46.840;18.336;2023-12-20T06:19:52;-1.53;99.99
75010;DHT22;63564;46.840;18.336;2023-12-20T06:22:52;-1.45;99.99
75010;DHT22;63564;46.840;18.336;2023-12-20T06:25:53;-1.49;99.99
75010;DHT22;63564;46.840;18.336;2023-12-20T06:28:53;-1.26;99.99
75010;DHT22;63564;46.840;18.336;2023-12-20T06:31:54;-1.47;99.99
75010;DHT22;63564;46.840;18.336;2023-12-20T06:34:54;-1.15;99.99
75010;DHT22;63564;46.840;18.336;2023-12-20T06:37:54;-1.52;99.99
75010;DHT22;63564;46.840;18.336;2023-12-20T06:40:55;-1.52;99.99
75010;DHT22;63564;46.840;18.336;2023-12-20T06:43:57;-1.49;99.99
75010;DHT22;63564;46.840;18.336;2023-12-20T06:46:58;-1.25;99.99
75010;DHT22;63564;46.840;18.336;2023-12-20T06:49:58;-1.25;99.99
75010;DHT22;63564;46.840;18.336;2023-12-20T06:52:58;-1.40;99.99
75010;DHT22;63564;46.840;18.336;2023-12-20T06:56:00;-1.35;99.99
75010;DHT22;63564;46.840;18.336;2023-12-20T06:59:00;-1.18;99.99
75010;DHT22;63564;46.840;18.336;2023-12-20T07:02:01;-1.12;99.99
75010;DHT22;63564;46.840;18.336;2023-12-20T07:05:02;-1.54;99.99
75010;DHT22;63564;46.840;18.336;2023-12-20T07:08:02;-1.28;99.99
75010;DHT22;63564;46.840;18.336;2023-12-20T07:11:03;-1.56;99.99
75010;DHT22;63564;46.840;18.336;2023-12-20T07:14:03;-1.35;99.99
75010;DHT22;63564;46.840;18.336;2023-12-20T07:17:03;-1.49;99.99
75010;DHT22;63564;46.840;18.336;2023-12-20T07:20:04;-1.49;99.99
75010;DHT22;63564;46.840;18.336;2023-12-20T07:23:06;-1.43;99.99
75010;DHT22;63564;46.840;18.336;2023-12-20T07:26:07;-1.46;99.99
75010;DHT22;63564;46.840;18.336;2023-12-20T07:29:07;-1.26;99.99
75010;DHT22;63564;46.840;18.336;2023-12-20T07:32:07;-1.11;99.99
75010;DHT22;63564;46.840;18.336;2023-12-20T07:35:08;-1.32;99.99
75010;DHT22;63564;46.840;18.336;2023-12-20T07:38:09;-1.06;99.99
75010;DHT22;63564;46.840;18.336;2023-12-20T07:41:10;-0.85;99.75
75010;DHT22;63564;46.840;18.336;2023-12-20T07:44:11;-0.94;99.99
75010;DHT22;63564;46.840;18.336;2023-12-20T07:47:11;-0.97;98.96
75010;DHT22;63564;46.840;18.336;2023-12-20T07:50:15;-0.91;98.55
75010;DHT22;63564;46.840;18.336;2023-12-20T07:53:16;-1.16;99.49
75010;DHT22;63564;46.840;18.336;2023-12-20T07:56:17;-1.12;99.99
75010;DHT22;63564;46.840;18.336;2023-12-20T07:59:17;-1.31;99.99
75010;DHT22;63564;46.840;18.336;2023-12-20T08:02:18;-1.33;99.99
75010;DHT22;63564;46.840;18.336;2023-12-20T08:05:18;-1.36;99.99
75010;DHT22;63564;46.840;18.336;2023-12-20T08:08:18;-1.36;99.99
75010;DHT22;63564;46.840;18.336;2023-12-20T08:11:19;-0.95;99.99
75010;DHT22;63564;46.840;18.336;2023-12-20T08:14:19;-1.26;99.99
75010;DHT22;63564;46.840;18.336;2023-12-20T08:17:21;-1.39;99.99
75010;DHT22;63564;46.840;18.336;2023-12-20T08:20:23;-1.40;99.99
75010;DHT22;63564;46.840;18.336;2023-12-20T08:23:23;-1.20;99.99
75010;DHT22;63564;46.840;18.336;2023-12-20T08:26:23;-1.13;99.99
75010;DHT22;63564;46.840;18.336;2023-12-20T08:29:24;-0.89;99.99
75010;DHT22;63564;46.840;18.336;2023-12-20T08:32:28;-1.09;98.55
75010;DHT22;63564;46.840;18.336;2023-12-20T08:35:28;-0.67;98.78
75010;DHT22;63564;46.840;18.336;2023-12-20T08:38:28;-0.95;98.69
75010;DHT22;63564;46.840;18.336;2023-12-20T08:41:29;-0.97;99.65
75010;DHT22;63564;46.840;18.336;2023-12-20T08:44:29;-0.78;99.99
75010;DHT22;63564;46.840;18.336;2023-12-20T08:47:30;-0.66;98.93
75010;DHT22;63564;46.840;18.336;2023-12-20T08:50:30;-0.67;98.42
75010;DHT22;63564;46.840;18.336;2023-12-20T08:53:31;-0.80;97.58
75010;DHT22;63564;46.840;18.336;2023-12-20T08:56:31;-0.28;96.11
75010;DHT22;63564;46.840;18.336;2023-12-20T08:59:32;-0.57;96.81
75010;DHT22;63564;46.840;18.336;2023-12-20T09:02:32;-0.67;98.71
75010;DHT22;63564;46.840;18.336;2023-12-20T09:05:33;-0.54;98.07
75010;DHT22;63564;46.840;18.336;2023-12-20T09:08:34;-0.54;98.22
75010;DHT22;63564;46.840;18.336;2023-12-20T09:11:34;-0.34;98.15
75010;DHT22;63564;46.840;18.336;2023-12-20T09:14:35;-0.28;98.05
75010;DHT22;63564;46.840;18.336;2023-12-20T09:17:36;-0.84;97.64
75010;DHT22;63564;46.840;18.336;2023-12-20T09:20:36;-0.40;97.98
75010;DHT22;63564;46.840;18.336;2023-12-20T09:23:37;-0.85;98.51
75010;DHT22;63564;46.840;18.336;2023-12-20T09:26:37;-0.64;99.72
75010;DHT22;63564;46.840;18.336;2023-12-20T09:29:39;-0.64;98.86
75010;DHT22;63564;46.840;18.336;2023-12-20T09:32:40;-0.12;97.11
75010;DHT22;63564;46.840;18.336;2023-12-20T09:35:40;-0.06;96.79
75010;DHT22;63564;46.840;18.336;2023-12-20T09:38:41;-0.08;97.11
75010;DHT22;63564;46.840;18.336;2023-12-20T09:41:44;0.05;96.13
75010;DHT22;63564;46.840;18.336;2023-12-20T09:44:47;-0.03;95.47
75010;DHT22;63564;46.840;18.336;2023-12-20T09:47:50;-0.44;97.57
75010;DHT22;63564;46.840;18.336;2023-12-20T09:50:51;-0.06;97.96
75010;DHT22;63564;46.840;18.336;2023-12-20T09:53:54;-0.19;97.43
75010;DHT22;63564;46.840;18.336;2023-12-20T09:56:54;0.06;96.44
75010;DHT22;63564;46.840;18.336;2023-12-20T09:59:55;0.03;97.17
75010;DHT22;63564;46.840;18.336;2023-12-20T10:03:00;-0.30;96.42
75010;DHT22;63564;46.840;18.336;2023-12-20T10:06:00;0.25;96.21
75010;DHT22;63564;46.840;18.336;2023-12-20T10:09:01;0.25;97.05
75010;DHT22;63564;46.840;18.336;2023-12-20T10:12:02;0.27;96.54
75010;DHT22;63564;46.840;18.336;2023-12-20T10:15:02;-0.32;98.33
75010;DHT22;63564;46.840;18.336;2023-12-20T10:18:03;-0.06;97.31
75010;DHT22;63564;46.840;18.336;2023-12-20T10:21:06;0.26;96.39
75010;DHT22;63564;46.840;18.336;2023-12-20T10:24:06;-0.05;94.86
75010;DHT22;63564;46.840;18.336;2023-12-20T10:27:07;0.25;95.53
75010;DHT22;63564;46.840;18.336;2023-12-20T10:30:08;0.20;95.21
75010;DHT22;63564;46.840;18.336;2023-12-20T10:33:09;0.29;95.36
75010;DHT22;63564;46.840;18.336;2023-12-20T10:36:10;0.01;96.75
75010;DHT22;63564;46.840;18.336;2023-12-20T10:39:13;0.33;96.87
75010;DHT22;63564;46.840;18.336;2023-12-20T10:42:16;0.39;97.36
75010;DHT22;63564;46.840;18.336;2023-12-20T10:45:17;0.01;98.37
75010;DHT22;63564;46.840;18.336;2023-12-20T10:48:18;-0.15;97.27
75010;DHT22;63564;46.840;18.336;2023-12-20T10:51:20;0.36;97.26
75010;DHT22;63564;46.840;18.336;2023-12-20T10:54:20;0.36;96.43
75010;DHT22;63564;46.840;18.336;2023-12-20T10:57:21;0.42;97.25
75010;DHT22;63564;46.840;18.336;2023-12-20T11:00:23;0.49;96.09
75010;DHT22;63564;46.840;18.336;2023-12-20T11:03:25;0.77;95.57
75010;DHT22;63564;46.840;18.336;2023-12-20T11:06:37;0.60;96.35
75010;DHT22;63564;46.840;18.336;2023-12-20T11:09:44;1.18;96.22
75010;DHT22;63564;46.840;18.336;2023-12-20T11:12:56;1.30;94.44
75010;DHT22;63564;46.840;18.336;2023-12-20T11:15:59;1.06;95.89
75010;DHT22;63564;46.840;18.336;2023-12-20T11:19:05;1.21;94.72
75010;DHT22;63564;46.840;18.336;2023-12-20T11:22:05;1.11;94.81
75010;DHT22;63564;46.840;18.336;2023-12-20T11:25:08;0.96;96.65
75010;DHT22;63564;46.840;18.336;2023-12-20T11:28:10;0.83;97.08
75010;DHT22;63564;46.840;18.336;2023-12-20T11:31:13;1.13;96.53
75010;DHT22;63564;46.840;18.336;2023-12-20T11:34:14;0.91;98.07
75010;DHT22;63564;46.840;18.336;2023-12-20T11:37:14;1.43;95.84
75010;DHT22;63564;46.840;18.336;2023-12-20T11:40:16;1.50;95.61
75010;DHT22;63564;46.840;18.336;2023-12-20T11:43:30;1.89;95.22
75010;DHT22;63564;46.840;18.336;2023-12-20T11:46:32;2.09;94.32
75010;DHT22;63564;46.840;18.336;2023-12-20T11:49:33;2.07;94.50
75010;DHT22;63564;46.840;18.336;2023-12-20T11:52:33;1.99;96.24
75010;DHT22;63564;46.840;18.336;2023-12-20T11:55:34;1.95;96.42
75010;DHT22;63564;46.840;18.336;2023-12-20T11:58:37;2.35;95.67
75010;DHT22;63564;46.840;18.336;2023-12-20T12:01:37;2.12;96.86
75010;DHT22;63564;46.840;18.336;2023-12-20T12:04:37;2.52;95.37
75010;DHT22;63564;46.840;18.336;2023-12-20T12:07:38;2.61;94.17
75010;DHT22;63564;46.840;18.336;2023-12-20T12:10:38;2.52;94.88
75010;DHT22;63564;46.840;18.336;2023-12-20T12:13:39;2.16;95.85
75010;DHT22;63564;46.840;18.336;2023-12-20T12:16:41;2.24;95.13
75010;DHT22;63564;46.840;18.336;2023-12-20T12:19:43;2.21;96.54
75010;DHT22;63564;46.840;18.336;2023-12-20T12:22:43;2.21;95.61
75010;DHT22;63564;46.840;18.336;2023-12-20T12:25:44;2.12;95.61
75010;DHT22;63564;46.840;18.336;2023-12-20T12:28:45;2.22;95.84
75010;DHT22;63564;46.840;18.336;2023-12-20T12:31:46;1.95;96.64
75010;DHT22;63564;46.840;18.336;2023-12-20T12:34:46;2.28;97.47
75010;DHT22;63564;46.840;18.336;2023-12-20T12:37:46;3.26;96.99
75010;DHT22;63564;46.840;18.336;2023-12-20T12:40:47;2.81;94.26
75010;DHT22;63564;46.840;18.336;2023-12-20T12:43:47;2.74;92.63
75010;DHT22;63564;46.840;18.336;2023-12-20T12:46:48;2.49;95.18
75010;DHT22;63564;46.840;18.336;2023-12-20T12:49:51;2.93;93.68
75010;DHT22;63564;46.840;18.336;2023-12-20T12:52:53;2.85;94.12
75010;DHT22;63564;46.840;18.336;2023-12-20T12:55:53;2.79;95.05
75010;DHT22;63564;46.840;18.336;2023-12-20T12:58:54;2.58;96.23
75010;DHT22;63564;46.840;18.336;2023-12-20T13:01:55;2.98;95.86
75010;DHT22;63564;46.840;18.336;2023-12-20T13:04:55;3.40;94.69
75010;DHT22;63564;46.840;18.336;2023-12-20T13:07:56;2.94;96.75
75010;DHT22;63564;46.840;18.336;2023-12-20T13:10:56;3.04;95.86
75010;DHT22;63564;46.840;18.336;2023-12-20T13:14:00;2.85;96.27
75010;DHT22;63564;46.840;18.336;2023-12-20T13:17:01;3.04;96.63
75010;DHT22;63564;46.840;18.336;2023-12-20T13:20:02;3.18;96.25
75010;DHT22;63564;46.840;18.336;2023-12-20T13:23:03;3.26;96.63
75010;DHT22;63564;46.840;18.336;2023-12-20T13:26:03;3.29;96.66
75010;DHT22;63564;46.840;18.336;2023-12-20T13:29:04;3.46;97.16
75010;DHT22;63564;46.840;18.336;2023-12-20T13:32:04;3.23;97.14
75010;DHT22;63564;46.840;18.336;2023-12-20T13:35:05;3.09;97.71
75010;DHT22;63564;46.840;18.336;2023-12-20T13:38:06;3.16;98.02
75010;DHT22;63564;46.840;18.336;2023-12-20T13:41:06;3.09;98.40
75010;DHT22;63564;46.840;18.336;2023-12-20T13:44:06;3.21;97.53
75010;DHT22;63564;46.840;18.336;2023-12-20T13:47:07;3.12;98.26
75010;DHT22;63564;46.840;18.336;2023-12-20T13:50:08;3.08;98.35
75010;DHT22;63564;46.840;18.336;2023-12-20T13:53:08;3.22;97.95
75010;DHT22;63564;46.840;18.336;2023-12-20T13:56:08;3.29;97.48
75010;DHT22;63564;46.840;18.336;2023-12-20T13:59:09;3.23;97.70
75010;DHT22;63564;46.840;18.336;2023-12-20T14:02:09;2.91;99.20
75010;DHT22;63564;46.840;18.336;2023-12-20T14:05:09;3.43;97.41
75010;DHT22;63564;46.840;18.336;2023-12-20T14:08:10;3.43;96.76
75010;DHT22;63564;46.840;18.336;2023-12-20T14:11:10;3.22;97.40
75010;DHT22;63564;46.840;18.336;2023-12-20T14:14:11;3.11;97.68
75010;DHT22;63564;46.840;18.336;2023-12-20T14:17:12;3.08;98.08
75010;DHT22;63564;46.840;18.336;2023-12-20T14:20:12;3.13;97.29
75010;DHT22;63564;46.840;18.336;2023-12-20T14:23:13;3.32;96.74
75010;DHT22;63564;46.840;18.336;2023-12-20T14:26:16;3.49;94.81
75010;DHT22;63564;46.840;18.336;2023-12-20T14:29:17;3.44;95.41
75010;DHT22;63564;46.840;18.336;2023-12-20T14:32:17;3.35;95.29
75010;DHT22;63564;46.840;18.336;2023-12-20T14:35:17;3.22;96.04
75010;DHT22;63564;46.840;18.336;2023-12-20T14:38:19;3.36;95.44
75010;DHT22;63564;46.840;18.336;2023-12-20T14:41:20;3.38;95.28
75010;DHT22;63564;46.840;18.336;2023-12-20T14:44:20;3.29;95.61
75010;DHT22;63564;46.840;18.336;2023-12-20T14:47:21;3.22;95.87
75010;DHT22;63564;46.840;18.336;2023-12-20T14:50:22;3.22;96.20
75010;DHT22;63564;46.840;18.336;2023-12-20T14:53:22;3.16;96.28
75010;DHT22;63564;46.840;18.336;2023-12-20T14:56:23;3.26;95.94
75010;DHT22;63564;46.840;18.336;2023-12-20T14:59:26;3.16;96.45
75010;DHT22;63564;46.840;18.336;2023-12-20T15:02:26;3.35;95.91
75010;DHT22;63564;46.840;18.336;2023-12-20T15:05:26;3.58;94.71
75010;DHT22;63564;46.840;18.336;2023-12-20T15:08:27;3.76;94.82
75010;DHT22;63564;46.840;18.336;2023-12-20T15:11:27;3.94;94.33
75010;DHT22;63564;46.840;18.336;2023-12-20T15:14:28;3.99;94.14
75010;DHT22;63564;46.840;18.336;2023-12-20T15:17:28;3.99;94.25
75010;DHT22;63564;46.840;18.336;2023-12-20T15:20:29;3.99;94.30
75010;DHT22;63564;46.840;18.336;2023-12-20T15:23:30;4.05;94.32
75010;DHT22;63564;46.840;18.336;2023-12-20T15:26:33;4.15;94.16
75010;DHT22;63564;46.840;18.336;2023-12-20T15:29:33;4.08;94.41
75010;DHT22;63564;46.840;18.336;2023-12-20T15:32:34;4.15;94.02
75010;DHT22;63564;46.840;18.336;2023-12-20T15:35:36;4.08;94.38
75010;DHT22;63564;46.840;18.336;2023-12-20T15:38:37;4.11;93.67
75010;DHT22;63564;46.840;18.336;2023-12-20T15:41:38;4.18;93.77
75010;DHT22;63564;46.840;18.336;2023-12-20T15:44:39;4.18;93.48
75010;DHT22;63564;46.840;18.336;2023-12-20T15:47:39;4.22;93.40
75010;DHT22;63564;46.840;18.336;2023-12-20T15:50:39;4.11;93.50
75010;DHT22;63564;46.840;18.336;2023-12-20T15:53:40;4.04;94.04
75010;DHT22;63564;46.840;18.336;2023-12-20T15:56:40;3.99;94.25
75010;DHT22;63564;46.840;18.336;2023-12-20T15:59:41;4.02;94.55
75010;DHT22;63564;46.840;18.336;2023-12-20T16:02:42;4.19;94.21
75010;DHT22;63564;46.840;18.336;2023-12-20T16:05:42;4.41;93.35
75010;DHT22;63564;46.840;18.336;2023-12-20T16:08:43;4.53;92.75
75010;DHT22;63564;46.840;18.336;2023-12-20T16:11:43;4.76;91.69
75010;DHT22;63564;46.840;18.336;2023-12-20T16:14:44;4.76;91.42
75010;DHT22;63564;46.840;18.336;2023-12-20T16:17:45;4.87;91.19
75010;DHT22;63564;46.840;18.336;2023-12-20T16:20:45;4.88;91.12
75010;DHT22;63564;46.840;18.336;2023-12-20T16:23:45;4.83;91.69
75010;DHT22;63564;46.840;18.336;2023-12-20T16:26:46;4.77;92.15
75010;DHT22;63564;46.840;18.336;2023-12-20T16:29:46;4.80;92.06
75010;DHT22;63564;46.840;18.336;2023-12-20T16:32:46;4.80;92.05
75010;DHT22;63564;46.840;18.336;2023-12-20T16:35:48;4.79;92.16
75010;DHT22;63564;46.840;18.336;2023-12-20T16:38:48;4.67;92.57
75010;DHT22;63564;46.840;18.336;2023-12-20T16:41:49;4.72;92.90
75010;DHT22;63564;46.840;18.336;2023-12-20T16:44:49;4.84;92.36
75010;DHT22;63564;46.840;18.336;2023-12-20T16:47:50;4.79;92.23
75010;DHT22;63564;46.840;18.336;2023-12-20T16:50:50;4.80;92.55
75010;DHT22;63564;46.840;18.336;2023-12-20T16:53:51;4.85;91.96
75010;DHT22;63564;46.840;18.336;2023-12-20T16:56:51;4.74;92.49
75010;DHT22;63564;46.840;18.336;2023-12-20T16:59:52;4.98;91.67
75010;DHT22;63564;46.840;18.336;2023-12-20T17:02:53;4.88;92.24
75010;DHT22;63564;46.840;18.336;2023-12-20T17:05:53;4.94;91.87
75010;DHT22;63564;46.840;18.336;2023-12-20T17:08:53;4.90;92.04
75010;DHT22;63564;46.840;18.336;2023-12-20T17:11:54;4.88;92.62
75010;DHT22;63564;46.840;18.336;2023-12-20T17:14:55;5.07;91.81
75010;DHT22;63564;46.840;18.336;2023-12-20T17:17:55;5.25;91.20
75010;DHT22;63564;46.840;18.336;2023-12-20T17:20:56;5.28;90.85
75010;DHT22;63564;46.840;18.336;2023-12-20T17:23:56;5.28;90.53
75010;DHT22;63564;46.840;18.336;2023-12-20T17:26:57;5.31;90.47
75010;DHT22;63564;46.840;18.336;2023-12-20T17:29:57;5.38;90.16
75010;DHT22;63564;46.840;18.336;2023-12-20T17:32:59;5.24;90.43
75010;DHT22;63564;46.840;18.336;2023-12-20T17:36:00;5.00;90.81
75010;DHT22;63564;46.840;18.336;2023-12-20T17:39:00;5.10;90.78
75010;DHT22;63564;46.840;18.336;2023-12-20T17:42:00;5.02;90.89
75010;DHT22;63564;46.840;18.336;2023-12-20T17:45:02;5.07;90.43
75010;DHT22;63564;46.840;18.336;2023-12-20T17:48:05;5.08;90.00
75010;DHT22;63564;46.840;18.336;2023-12-20T17:51:06;5.04;90.29
75010;DHT22;63564;46.840;18.336;2023-12-20T17:54:06;4.95;90.36
75010;DHT22;63564;46.840;18.336;2023-12-20T17:57:07;4.94;90.44
75010;DHT22;63564;46.840;18.336;2023-12-20T18:00:28;4.79;90.28
75010;DHT22;63564;46.840;18.336;2023-12-20T18:03:29;4.69;90.75
75010;DHT22;63564;46.840;18.336;2023-12-20T18:06:30;4.60;90.16
75010;DHT22;63564;46.840;18.336;2023-12-20T18:09:32;4.52;90.58
75010;DHT22;63564;46.840;18.336;2023-12-20T18:12:33;4.43;90.43
75010;DHT22;63564;46.840;18.336;2023-12-20T18:15:34;4.53;89.49
75010;DHT22;63564;46.840;18.336;2023-12-20T18:18:38;4.69;88.79
75010;DHT22;63564;46.840;18.336;2023-12-20T18:21:39;4.67;88.58
75010;DHT22;63564;46.840;18.336;2023-12-20T18:24:40;4.62;88.07
75010;DHT22;63564;46.840;18.336;2023-12-20T18:27:42;4.62;87.46
75010;DHT22;63564;46.840;18.336;2023-12-20T18:30:43;4.50;87.74
75010;DHT22;63564;46.840;18.336;2023-12-20T18:33:44;4.48;87.85
75010;DHT22;63564;46.840;18.336;2023-12-20T18:36:45;4.59;87.04
75010;DHT22;63564;46.840;18.336;2023-12-20T18:39:48;4.52;86.99
75010;DHT22;63564;46.840;18.336;2023-12-20T18:42:51;4.50;86.80
75010;DHT22;63564;46.840;18.336;2023-12-20T18:45:52;4.69;85.79
75010;DHT22;63564;46.840;18.336;2023-12-20T18:48:54;5.00;84.12
75010;DHT22;63564;46.840;18.336;2023-12-20T18:51:55;5.10;83.70